createdAt,value
2022-10-13T00:00:04.910Z,11.80
2022-10-13T00:02:34.347Z,11.50
2022-10-13T00:04:56.536Z,11.40
2022-10-13T00:07:19.672Z,10.90
2022-10-13T00:09:41.848Z,12.33
2022-10-13T00:12:04.097Z,10.97
2022-10-13T00:14:26.313Z,11.63
2022-10-13T00:16:48.506Z,11.93
2022-10-13T00:19:14.843Z,11.57
2022-10-13T00:21:37.308Z,13.17
2022-10-13T00:23:59.583Z,12.93
2022-10-13T00:26:23.716Z,12.70
2022-10-13T00:28:51.245Z,12.67
2022-10-13T00:31:16.123Z,11.73
2022-10-13T00:33:38.293Z,12.30
2022-10-13T00:36:00.490Z,11.20
2022-10-13T00:38:23.392Z,12.57
2022-10-13T00:40:45.549Z,12.53
2022-10-13T00:43:15.178Z,11.50
2022-10-13T00:45:37.426Z,11.40
2022-10-13T00:48:01.794Z,10.93
2022-10-13T00:50:30.413Z,10.77
2022-10-13T00:52:53.540Z,10.27
2022-10-13T00:55:21.291Z,9.40
2022-10-13T00:57:44.618Z,10.73
2022-10-13T01:00:07.278Z,10.47
2022-10-13T01:02:32.368Z,10.80
2022-10-13T01:04:54.577Z,9.50
2022-10-13T01:07:17.807Z,10.53
2022-10-13T01:09:42.195Z,10.80
2022-10-13T01:12:11.638Z,10.83
2022-10-13T01:14:37.355Z,11.90
2022-10-13T01:17:09.844Z,10.57
2022-10-13T01:19:42.899Z,11.20
2022-10-13T01:22:14.349Z,11.00
2022-10-13T01:24:42.284Z,11.03
2022-10-13T01:27:04.585Z,10.60
2022-10-13T01:29:45.763Z,10.83
2022-10-13T01:32:20.746Z,10.90
2022-10-13T01:34:46.190Z,11.00
2022-10-13T01:37:14.150Z,11.70
2022-10-13T01:39:40.446Z,10.17
2022-10-13T01:42:11.535Z,10.70
2022-10-13T01:44:35.688Z,10.27
2022-10-13T01:46:58.013Z,11.47
2022-10-13T01:49:22.221Z,11.37
2022-10-13T01:51:44.771Z,11.80
2022-10-13T01:54:07.420Z,11.17
2022-10-13T01:56:29.593Z,11.10
2022-10-13T01:58:52.608Z,11.50
2022-10-13T02:01:33.256Z,10.70
2022-10-13T02:04:03.701Z,10.60
2022-10-13T02:06:31.886Z,9.80
2022-10-13T02:09:18.575Z,11.73
2022-10-13T02:11:45.015Z,12.63
2022-10-13T02:14:11.569Z,12.87
2022-10-13T02:16:36.172Z,12.73
2022-10-13T02:18:58.812Z,13.27
2022-10-13T02:21:20.960Z,12.30
2022-10-13T02:23:45.472Z,12.73
2022-10-13T02:26:07.639Z,12.43
2022-10-13T02:28:29.895Z,12.50
2022-10-13T02:30:52.193Z,14.30
2022-10-13T02:33:14.650Z,13.70
2022-10-13T02:35:36.844Z,13.23
2022-10-13T02:37:59.650Z,14.23
2022-10-13T02:40:22.168Z,16.00
2022-10-13T02:42:44.537Z,15.17
2022-10-13T02:45:07.068Z,18.50
2022-10-13T02:47:29.638Z,18.77
2022-10-13T02:49:51.902Z,17.93
2022-10-13T02:52:14.337Z,17.77
2022-10-13T02:54:37.376Z,16.77
2022-10-13T02:56:59.533Z,17.43
2022-10-13T02:59:21.758Z,17.63
2022-10-13T03:01:44.625Z,17.50
2022-10-13T03:04:06.801Z,19.63
2022-10-13T03:06:28.992Z,19.17
2022-10-13T03:08:51.228Z,20.20
2022-10-13T03:11:13.776Z,18.50
2022-10-13T03:13:37.132Z,20.80
2022-10-13T03:16:01.738Z,19.27
2022-10-13T03:18:23.965Z,19.30
2022-10-13T03:20:55.741Z,19.67
2022-10-13T03:23:17.936Z,19.57
2022-10-13T03:25:40.133Z,20.47
2022-10-13T03:28:02.640Z,18.47
2022-10-13T03:30:24.871Z,17.87
2022-10-13T03:32:47.212Z,17.43
2022-10-13T03:35:09.680Z,18.77
2022-10-13T03:37:32.126Z,17.83
2022-10-13T03:39:54.281Z,17.93
2022-10-13T03:42:16.947Z,18.60
2022-10-13T03:44:39.773Z,17.70
2022-10-13T03:47:01.949Z,19.43
2022-10-13T03:49:24.112Z,20.17
2022-10-13T03:51:47.427Z,19.03
2022-10-13T03:54:12.301Z,21.57
2022-10-13T03:56:34.455Z,18.33
2022-10-13T03:58:57.961Z,17.50
2022-10-13T04:01:20.533Z,18.07
2022-10-13T04:03:43.933Z,19.80
2022-10-13T04:06:06.877Z,20.03
2022-10-13T04:08:30.512Z,17.73
2022-10-13T04:10:58.921Z,18.37
2022-10-13T04:13:21.083Z,18.00
2022-10-13T04:15:47.216Z,18.60
2022-10-13T04:18:09.955Z,20.10
2022-10-13T04:20:32.119Z,18.27
2022-10-13T04:22:54.328Z,18.37
2022-10-13T04:25:16.555Z,17.17
2022-10-13T04:27:39.457Z,17.43
2022-10-13T04:30:01.672Z,18.30
2022-10-13T04:32:23.836Z,16.70
2022-10-13T04:34:46.041Z,18.07
2022-10-13T04:37:08.222Z,17.73
2022-10-13T04:39:42.792Z,16.43
2022-10-13T04:42:05.122Z,17.10
2022-10-13T04:44:27.316Z,20.43
2022-10-13T04:46:49.759Z,17.60
2022-10-13T04:49:11.957Z,17.90
2022-10-13T04:51:34.237Z,18.13
2022-10-13T04:54:01.959Z,18.73
2022-10-13T04:56:24.174Z,19.43
2022-10-13T04:58:46.728Z,17.07
2022-10-13T05:01:12.237Z,19.23
2022-10-13T05:03:34.556Z,17.77
2022-10-13T05:05:56.736Z,18.67
2022-10-13T05:08:18.944Z,16.93
2022-10-13T05:10:41.154Z,17.63
2022-10-13T05:13:03.691Z,19.10
2022-10-13T05:15:25.950Z,17.63
2022-10-13T05:17:48.108Z,17.47
2022-10-13T05:20:10.679Z,17.93
2022-10-13T05:22:32.949Z,16.33
2022-10-13T05:24:55.085Z,18.20
2022-10-13T05:27:17.293Z,16.80
2022-10-13T05:29:40.039Z,16.70
2022-10-13T05:32:02.265Z,18.20
2022-10-13T05:34:24.581Z,16.60
2022-10-13T05:36:46.782Z,17.43
2022-10-13T05:39:15.657Z,17.30
2022-10-13T05:41:39.199Z,18.30
2022-10-13T05:44:09.956Z,17.37
2022-10-13T05:46:37.587Z,17.60
2022-10-13T05:48:59.810Z,17.47
2022-10-13T05:51:26.260Z,17.60
2022-10-13T05:53:55.362Z,16.90
2022-10-13T05:56:22.393Z,18.73
2022-10-13T05:58:46.956Z,17.60
2022-10-13T06:01:10.988Z,17.63
2022-10-13T06:03:33.497Z,17.10
2022-10-13T06:05:55.676Z,17.40
2022-10-13T06:08:18.040Z,18.27
2022-10-13T06:10:42.305Z,17.37
2022-10-13T06:13:04.528Z,16.50
2022-10-13T06:15:28.351Z,17.20
2022-10-13T06:17:51.769Z,25.03
2022-10-13T06:20:13.984Z,18.27
2022-10-13T06:22:36.717Z,19.53
2022-10-13T06:24:58.925Z,18.03
2022-10-13T06:27:21.137Z,17.57
2022-10-13T06:29:46.255Z,19.17
2022-10-13T06:32:08.486Z,17.00
2022-10-13T06:34:30.713Z,18.10
2022-10-13T06:36:53.120Z,17.20
2022-10-13T06:39:15.315Z,18.90
2022-10-13T06:41:37.539Z,19.37
2022-10-13T06:43:59.871Z,18.77
2022-10-13T06:46:24.815Z,17.97
2022-10-13T06:48:49.910Z,20.10
2022-10-13T06:51:12.619Z,19.23
2022-10-13T06:53:35.026Z,19.57
2022-10-13T06:55:58.014Z,16.97
2022-10-13T06:58:20.266Z,18.83
2022-10-13T07:00:42.853Z,16.63
2022-10-13T07:03:05.927Z,19.73
2022-10-13T07:05:28.128Z,20.00
2022-10-13T07:07:53.876Z,19.67
2022-10-13T07:10:16.093Z,17.73
2022-10-13T07:12:38.613Z,16.60
2022-10-13T07:15:00.908Z,19.47
2022-10-13T07:17:23.394Z,16.73
2022-10-13T07:19:48.557Z,18.40
2022-10-13T07:22:10.775Z,18.07
2022-10-13T07:24:35.303Z,18.40
2022-10-13T07:26:58.059Z,17.60
2022-10-13T07:29:20.608Z,18.67
2022-10-13T07:31:47.948Z,21.07
2022-10-13T07:34:10.793Z,20.43
2022-10-13T07:36:42.174Z,23.10
2022-10-13T07:39:11.027Z,20.60
2022-10-13T07:41:33.570Z,19.13
2022-10-13T07:44:00.611Z,18.70
2022-10-13T07:46:29.846Z,20.93
2022-10-13T07:48:56.345Z,19.60
2022-10-13T07:51:22.365Z,20.50
2022-10-13T07:53:46.851Z,20.30
2022-10-13T07:58:57.621Z,17.97
2022-10-13T08:01:36.691Z,19.47
2022-10-13T08:03:59.409Z,18.53
2022-10-13T08:06:24.717Z,18.50
2022-10-13T08:09:35.955Z,17.67
2022-10-13T08:12:00.846Z,17.43
2022-10-13T08:14:28.851Z,19.07
2022-10-13T08:16:53.687Z,17.13
2022-10-13T08:19:22.246Z,18.87
2022-10-13T08:22:01.790Z,18.27
2022-10-13T08:24:37.324Z,17.80
2022-10-13T08:27:04.270Z,19.33
2022-10-13T08:29:31.072Z,17.37
2022-10-13T08:31:56.214Z,19.70
2022-10-13T08:34:45.482Z,20.00
2022-10-13T08:37:16.865Z,18.47
2022-10-13T08:39:49.350Z,18.97
2022-10-13T08:42:18.644Z,18.80
2022-10-13T08:47:45.132Z,20.60
2022-10-13T08:50:21.865Z,19.00
2022-10-13T08:52:57.131Z,19.33
2022-10-13T08:55:31.172Z,21.23
2022-10-13T08:57:55.062Z,19.07
2022-10-13T09:00:29.032Z,18.90
2022-10-13T09:02:54.564Z,17.73
2022-10-13T09:08:07.807Z,18.27
2022-10-13T09:10:33.932Z,17.90
2022-10-13T09:13:06.309Z,18.48
2022-10-13T09:15:42.792Z,17.38
2022-10-13T09:18:16.764Z,19.27
2022-10-13T09:20:39.924Z,17.25
2022-10-13T09:23:08.210Z,17.02
2022-10-13T09:28:14.585Z,16.70
2022-10-13T09:30:38.941Z,16.73
2022-10-13T09:33:13.403Z,15.75
2022-10-13T09:35:42.066Z,15.68
2022-10-13T09:38:30.429Z,15.10
2022-10-13T09:41:03.828Z,13.70
2022-10-13T09:46:28.738Z,12.90
2022-10-13T09:49:06.748Z,13.02
2022-10-13T09:51:32.935Z,13.25
2022-10-13T09:54:00.608Z,13.88
2022-10-13T09:56:44.979Z,13.45
2022-10-13T09:59:26.254Z,12.98
2022-10-13T10:01:52.156Z,12.48
2022-10-13T10:04:18.384Z,13.63
2022-10-13T10:06:44.329Z,13.80
2022-10-13T10:09:27.547Z,12.90
2022-10-13T10:11:52.641Z,13.00
2022-10-13T10:14:32.706Z,13.27
2022-10-13T10:17:03.353Z,13.45
2022-10-13T10:19:34.586Z,15.23
2022-10-13T10:21:57.440Z,14.40
2022-10-13T10:24:47.216Z,13.77
2022-10-13T10:27:32.707Z,14.13
2022-10-13T10:30:05.569Z,14.13
2022-10-13T10:32:46.943Z,13.50
2022-10-13T10:35:15.436Z,13.43
2022-10-13T10:37:40.840Z,13.27
2022-10-13T10:40:31.644Z,13.70
2022-10-13T10:43:12.709Z,13.50
2022-10-13T10:45:41.614Z,12.55
2022-10-13T10:48:08.149Z,12.88
2022-10-13T10:50:32.377Z,13.82
2022-10-13T10:53:12.790Z,12.60
2022-10-13T10:56:10.083Z,13.38
2022-10-13T10:58:46.506Z,12.18
2022-10-13T11:01:13.068Z,12.00
2022-10-13T11:03:45.929Z,12.35
2022-10-13T11:06:17.494Z,11.38
2022-10-13T11:08:47.364Z,11.70
2022-10-13T11:11:26.731Z,12.05
2022-10-13T11:14:06.463Z,11.77
2022-10-13T11:16:35.264Z,12.43
2022-10-13T11:19:34.368Z,11.98
2022-10-13T11:22:02.933Z,12.88
2022-10-13T11:24:48.925Z,11.20
2022-10-13T11:27:19.448Z,11.73
2022-10-13T11:29:46.820Z,12.00
2022-10-13T11:32:30.135Z,12.15
2022-10-13T11:35:26.756Z,11.77
2022-10-13T11:38:07.808Z,13.07
2022-10-13T11:40:49.961Z,10.77
2022-10-13T11:43:15.374Z,11.95
2022-10-13T11:46:16.233Z,12.65
2022-10-13T11:48:57.609Z,12.23
2022-10-13T11:51:33.251Z,11.95
2022-10-13T11:54:18.681Z,11.73
2022-10-13T11:56:48.288Z,11.85
2022-10-13T11:59:35.817Z,11.75
2022-10-13T12:02:06.756Z,10.48
2022-10-13T12:04:31.165Z,10.93
2022-10-13T12:06:59.231Z,11.00
2022-10-13T12:12:16.043Z,11.75
2022-10-13T12:14:46.082Z,11.02
2022-10-13T12:17:31.550Z,12.00
2022-10-13T12:20:00.447Z,11.35
2022-10-13T12:22:26.974Z,11.00
2022-10-13T12:24:59.047Z,12.27
2022-10-13T12:27:25.265Z,12.50
2022-10-13T12:29:50.497Z,11.32
2022-10-13T12:32:26.637Z,11.73
2022-10-13T12:35:00.688Z,11.80
2022-10-13T12:37:33.426Z,11.35
2022-10-13T12:39:57.716Z,12.05
2022-10-13T12:42:27.715Z,11.55
2022-10-13T12:44:53.521Z,13.50
2022-10-13T12:47:40.903Z,11.77
2022-10-13T12:50:22.870Z,13.30
2022-10-13T12:52:46.440Z,13.02
2022-10-13T12:55:16.393Z,13.00
2022-10-13T13:00:35.277Z,13.15
2022-10-13T13:03:01.586Z,13.23
2022-10-13T13:05:53.600Z,14.43
2022-10-13T13:08:29.374Z,13.88
2022-10-13T13:10:58.493Z,15.93
2022-10-13T13:13:22.993Z,16.95
2022-10-13T13:15:45.258Z,16.05
2022-10-13T13:18:26.410Z,15.52
2022-10-13T13:20:48.691Z,16.53
2022-10-13T13:23:11.513Z,17.33
2022-10-13T13:25:33.821Z,16.50
2022-10-13T13:27:56.270Z,16.00
2022-10-13T13:30:20.152Z,14.30
2022-10-13T13:32:43.421Z,15.88
2022-10-13T13:35:08.847Z,16.42
2022-10-13T13:37:55.272Z,16.05
2022-10-13T13:40:23.802Z,17.02
2022-10-13T13:42:55.247Z,15.38
2022-10-13T13:45:35.945Z,15.60
2022-10-13T13:48:04.027Z,15.27
2022-10-13T13:50:27.438Z,15.52
2022-10-13T13:52:55.257Z,16.90
2022-10-13T13:55:17.730Z,15.88
2022-10-13T13:57:42.833Z,16.10
2022-10-13T14:00:12.448Z,15.45
2022-10-13T14:02:34.758Z,15.35
2022-10-13T14:05:00.502Z,14.93
2022-10-13T14:07:23.938Z,14.40
2022-10-13T14:09:56.531Z,15.18
2022-10-13T14:12:21.876Z,16.38
2022-10-13T14:14:45.769Z,16.00
2022-10-13T14:17:08.924Z,16.25
2022-10-13T14:22:12.180Z,16.40
2022-10-13T14:24:35.057Z,17.10
2022-10-13T14:26:58.151Z,17.00
2022-10-13T14:29:20.574Z,17.15
2022-10-13T14:31:43.062Z,17.27
2022-10-13T14:34:05.412Z,17.27
2022-10-13T14:36:33.881Z,17.13
2022-10-13T14:38:56.290Z,18.23
2022-10-13T14:41:19.363Z,19.50
2022-10-13T14:43:45.174Z,18.83
2022-10-13T14:46:21.333Z,17.50
2022-10-13T14:48:43.794Z,18.27
2022-10-13T14:51:09.997Z,16.88
2022-10-13T14:53:35.893Z,17.08
2022-10-13T14:55:58.349Z,17.63
2022-10-13T14:58:22.969Z,18.10
2022-10-13T15:00:45.409Z,17.27
2022-10-13T15:03:07.699Z,16.48
2022-10-13T15:05:30.202Z,16.13
2022-10-13T15:07:52.586Z,9.65
2022-10-13T15:10:19.037Z,10.98
2022-10-13T15:12:47.429Z,12.40
2022-10-13T15:15:12.934Z,11.73
2022-10-13T15:17:37.518Z,10.80
2022-10-13T15:19:59.964Z,12.50
2022-10-13T15:22:22.932Z,10.90
2022-10-13T15:24:56.094Z,10.40
2022-10-13T15:27:21.492Z,11.20
2022-10-13T15:29:54.403Z,10.70
2022-10-13T15:32:29.935Z,11.10
2022-10-13T15:34:56.126Z,11.05
2022-10-13T15:37:19.749Z,10.30
2022-10-13T15:39:44.858Z,9.13
2022-10-13T15:42:07.097Z,9.43
2022-10-13T15:44:51.003Z,8.13
2022-10-13T15:47:17.068Z,8.13
2022-10-13T15:49:41.685Z,8.70
2022-10-13T15:52:07.804Z,8.68
2022-10-13T15:54:30.148Z,8.83
2022-10-13T15:56:52.412Z,8.77
2022-10-13T15:59:18.073Z,9.70
2022-10-13T16:01:40.413Z,8.75
2022-10-13T16:04:02.902Z,7.93
2022-10-13T16:06:26.592Z,8.07
2022-10-13T16:08:51.589Z,8.20
2022-10-13T16:11:16.011Z,7.78
2022-10-13T16:13:38.472Z,8.10
2022-10-13T16:16:01.358Z,7.67
2022-10-13T16:18:26.634Z,7.63
2022-10-13T16:20:48.872Z,7.80
2022-10-13T16:23:11.169Z,8.10
2022-10-13T16:25:42.153Z,8.02
2022-10-13T16:28:04.796Z,7.63
2022-10-13T16:30:31.630Z,7.90
2022-10-13T16:32:54.246Z,7.72
2022-10-13T16:35:23.087Z,7.40
2022-10-13T16:37:46.429Z,8.05
2022-10-13T16:40:12.646Z,7.43
2022-10-13T16:42:34.992Z,8.77
2022-10-13T16:44:57.639Z,7.32
2022-10-13T16:47:23.032Z,8.10
2022-10-13T16:49:45.577Z,8.23
2022-10-13T16:52:10.162Z,7.37
2022-10-13T16:54:33.919Z,7.30
2022-10-13T16:57:00.996Z,7.47
2022-10-13T16:59:28.961Z,7.47
2022-10-13T17:01:51.600Z,7.73
2022-10-13T17:04:18.512Z,8.73
2022-10-13T17:06:47.103Z,8.20
2022-10-13T17:09:15.488Z,8.30
2022-10-13T17:11:40.841Z,9.40
2022-10-13T17:14:07.396Z,8.50
2022-10-13T17:16:30.097Z,8.57
2022-10-13T17:18:52.311Z,8.30
2022-10-13T17:21:15.856Z,7.63
2022-10-13T17:23:38.444Z,7.67
2022-10-13T17:26:08.594Z,8.90
2022-10-13T17:28:30.907Z,8.40
2022-10-13T17:30:58.635Z,8.30
2022-10-13T17:33:21.018Z,9.40
2022-10-13T17:35:43.468Z,8.67
2022-10-13T17:38:06.350Z,9.07
2022-10-13T17:40:28.708Z,9.20
2022-10-13T17:42:53.718Z,8.50
2022-10-13T17:45:20.038Z,8.20
2022-10-13T17:47:58.594Z,7.33
2022-10-13T17:50:26.489Z,5.93
2022-10-13T17:52:48.932Z,6.33
2022-10-13T17:55:12.546Z,6.13
2022-10-13T17:57:34.805Z,5.90
2022-10-13T18:00:07.220Z,5.43
2022-10-13T18:02:34.691Z,5.90
2022-10-13T18:04:56.929Z,6.43
2022-10-13T18:07:19.526Z,8.67
2022-10-13T18:09:42.412Z,6.90
2022-10-13T18:12:07.708Z,5.90
2022-10-13T18:14:38.739Z,6.80
2022-10-13T18:17:01.940Z,6.97
2022-10-13T18:19:24.189Z,6.60
2022-10-13T18:21:46.486Z,6.93
2022-10-13T18:24:12.480Z,6.23
2022-10-13T18:26:35.948Z,5.97
2022-10-13T18:29:02.549Z,7.07
2022-10-13T18:31:29.230Z,7.47
2022-10-13T18:34:03.566Z,6.53
2022-10-13T18:36:28.439Z,6.80
2022-10-13T18:39:02.983Z,6.67
2022-10-13T18:41:28.589Z,7.30
2022-10-13T18:43:51.044Z,7.27
2022-10-13T18:46:24.249Z,7.47
2022-10-13T18:48:50.638Z,6.87
2022-10-13T18:51:20.244Z,7.00
2022-10-13T18:53:43.667Z,6.20
2022-10-13T18:56:08.411Z,6.33
2022-10-13T18:58:32.813Z,6.33
2022-10-13T19:01:01.500Z,7.57
2022-10-13T19:03:24.100Z,7.10
2022-10-13T19:05:46.942Z,7.57
2022-10-13T19:08:09.912Z,6.70
2022-10-13T19:10:33.022Z,7.00
2022-10-13T19:12:55.415Z,6.30
2022-10-13T19:15:22.852Z,6.97
2022-10-13T19:17:45.865Z,5.73
2022-10-13T19:20:10.862Z,5.30
2022-10-13T19:22:34.625Z,5.47
2022-10-13T19:25:04.513Z,5.10
2022-10-13T19:27:30.217Z,5.47
2022-10-13T19:29:56.997Z,5.60
2022-10-13T19:32:19.244Z,5.63
2022-10-13T19:34:41.601Z,5.10
2022-10-13T19:37:09.303Z,5.03
2022-10-13T19:39:40.740Z,5.90
2022-10-13T19:42:03.004Z,4.90
2022-10-13T19:44:25.501Z,5.00
2022-10-13T19:46:50.388Z,5.00
2022-10-13T19:49:20.662Z,4.97
2022-10-13T19:51:42.982Z,5.23
2022-10-13T19:54:08.921Z,4.97
2022-10-13T19:56:39.482Z,5.50
2022-10-13T19:59:06.933Z,4.77
2022-10-13T20:01:29.137Z,5.20
2022-10-13T20:03:53.465Z,5.60
2022-10-13T20:06:16.074Z,5.33
2022-10-13T20:08:44.770Z,5.43
2022-10-13T20:11:07.970Z,5.47
2022-10-13T20:13:33.379Z,5.27
2022-10-13T20:15:56.021Z,5.07
2022-10-13T20:18:18.437Z,5.17
2022-10-13T20:20:49.659Z,5.07
2022-10-13T20:23:18.928Z,5.80
2022-10-13T20:25:42.269Z,5.87
2022-10-13T20:28:05.066Z,6.03
2022-10-13T20:30:29.649Z,5.23
2022-10-13T20:32:52.967Z,6.30
2022-10-13T20:35:18.353Z,6.67
2022-10-13T20:37:40.667Z,6.23
2022-10-13T20:40:03.253Z,6.63
2022-10-13T20:42:26.790Z,6.57
2022-10-13T20:44:51.796Z,6.80
2022-10-13T20:47:14.210Z,5.93
2022-10-13T20:49:51.942Z,6.40
2022-10-13T20:52:38.601Z,6.30
2022-10-13T20:57:52.328Z,6.30
2022-10-13T21:00:23.942Z,5.97
2022-10-13T21:02:47.622Z,6.43
2022-10-13T21:05:09.870Z,6.20
2022-10-13T21:07:33.028Z,6.93
2022-10-13T21:09:55.285Z,6.43
2022-10-13T21:12:17.605Z,6.30
2022-10-13T21:14:39.811Z,6.83
2022-10-13T21:17:02.033Z,7.30
2022-10-13T21:19:24.228Z,7.27
2022-10-13T21:21:46.669Z,8.10
2022-10-13T21:24:09.054Z,7.03
2022-10-13T21:26:32.149Z,7.40
2022-10-13T21:28:54.389Z,7.17
2022-10-13T21:31:17.463Z,6.90
2022-10-13T21:33:40.503Z,6.53
2022-10-13T21:36:05.710Z,6.90
2022-10-13T21:38:28.145Z,6.63
2022-10-13T21:40:53.764Z,6.90
2022-10-13T21:43:16.130Z,6.60
2022-10-13T21:45:38.471Z,6.83
2022-10-13T21:48:00.637Z,6.57
2022-10-13T21:50:34.921Z,7.10
2022-10-13T21:52:57.226Z,5.87
2022-10-13T21:55:21.038Z,6.37
2022-10-13T21:57:43.247Z,7.13
2022-10-13T22:00:05.941Z,6.53
2022-10-13T22:02:34.846Z,6.50
2022-10-13T22:04:57.010Z,7.70
2022-10-13T22:07:19.476Z,7.27
2022-10-13T22:09:41.845Z,7.83
2022-10-13T22:12:04.140Z,7.37
2022-10-13T22:14:26.402Z,8.23
2022-10-13T22:16:49.320Z,8.47
2022-10-13T22:19:11.751Z,8.37
2022-10-13T22:21:35.585Z,8.13
2022-10-13T22:24:06.947Z,9.47
2022-10-13T22:26:30.053Z,9.30
2022-10-13T22:28:52.445Z,10.37
2022-10-13T22:31:14.708Z,10.17
2022-10-13T22:33:37.795Z,9.97
2022-10-13T22:35:59.997Z,10.67
2022-10-13T22:38:22.315Z,10.40
2022-10-13T22:40:44.475Z,10.10
2022-10-13T22:43:06.805Z,10.23
2022-10-13T22:45:29.079Z,9.90
2022-10-13T22:47:52.074Z,9.97
2022-10-13T22:50:14.334Z,10.23
2022-10-13T22:52:36.510Z,10.67
2022-10-13T22:54:58.749Z,10.70
2022-10-13T22:57:21.335Z,10.23
2022-10-13T22:59:45.342Z,9.87
2022-10-13T23:02:08.019Z,10.23
2022-10-13T23:04:31.617Z,10.57
2022-10-13T23:06:53.856Z,9.60
2022-10-13T23:09:16.026Z,10.37
2022-10-13T23:11:38.579Z,11.20
2022-10-13T23:14:02.310Z,11.20
2022-10-13T23:16:25.363Z,10.50
2022-10-13T23:18:47.901Z,10.57
2022-10-13T23:21:20.162Z,10.77
2022-10-13T23:23:42.570Z,10.17
2022-10-13T23:26:05.500Z,10.80
2022-10-13T23:28:27.776Z,11.33
2022-10-13T23:30:51.008Z,10.83
2022-10-13T23:33:13.413Z,10.63
2022-10-13T23:35:37.621Z,10.03
2022-10-13T23:37:59.828Z,10.87
2022-10-13T23:40:23.859Z,9.60
2022-10-13T23:42:46.048Z,11.20
2022-10-13T23:45:08.469Z,10.70
2022-10-13T23:47:30.693Z,10.73
2022-10-13T23:49:52.861Z,10.70
2022-10-13T23:52:15.033Z,11.27
2022-10-13T23:54:37.272Z,12.10
2022-10-13T23:56:59.718Z,11.57
2022-10-13T23:59:21.875Z,11.40
